Time;durP1;ratioP1;P1;durP2;ratioP2;P2;SDS_P1;SDS_P2;PMS_P1;PMS_P2;Temp;Humidity;BMP_temperature;BMP_pressure;BME280_temperature;BME280_humidity;BME280_pressure;Samples;Min_cycle;Max_cycle;Signal;HPM_P1;HPM_P2
2023/01/04 00:00:02;;;;;;;;;;;;;;;;;;5001409;28;4709;-59
2023/01/04 00:02:27;;;;;;;;;;;;;;;;;;5002853;28;5079;-59
2023/01/04 00:04:52;;;;;;;;;;;;;;;;;;4999602;28;3324;-59
2023/01/04 00:07:18;;;;;;;;;;;;;;;;;;5000005;28;5001;-59
2023/01/04 00:09:43;;;;;;;;;;;;;;;;;;5002737;28;4504;-59
2023/01/04 00:12:08;;;;;;;;;;;;;;;;;;5003266;28;5038;-60
2023/01/04 00:14:33;;;;;;;;;;;;;;;;;;5009810;28;5290;-59
2023/01/04 00:16:59;;;;;;;;;;;;;;;;;;5008704;28;3702;-59
2023/01/04 00:19:24;;;;;;;;;;;;;;;;;;5009537;28;4841;-59
2023/01/04 00:21:49;;;;;;;;;;;;;;;;;;4988312;28;4441;-58
2023/01/04 00:24:14;;;;;;;;;;;;;;;;;;4985313;28;5111;-58
2023/01/04 00:26:40;;;;;;;;;;;;;;;;;;4980428;28;5085;-58
2023/01/04 00:29:05;;;;;;;;;;;;;;;;;;4987022;28;5073;-59
2023/01/04 00:31:31;;;;;;;;;;;;;;;;;;4989325;28;3532;-58
2023/01/04 00:33:57;;;;;;;;;;;;;;;;;;4980582;28;5093;-59
2023/01/04 00:36:22;;;;;;;;;;;;;;;;;;4986734;28;4737;-58
2023/01/04 00:39:05;;;;;;;;;;;;;;;;;;4976480;28;4936;-58
2023/01/04 00:41:31;;;;;;;;;;;;;;;;;;4981533;28;5025;-58
2023/01/04 00:43:56;;;;;;;;;;;;;;;;;;4983501;28;3306;-58
2023/01/04 00:46:21;;;;;;;;;;;;;;;;;;4985620;28;5095;-58
2023/01/04 00:48:46;;;;;;;;;;;;;;;;;;4979066;28;5099;-58
2023/01/04 00:51:12;;;;;;;;;;;;;;;;;;4985502;28;5050;-58
2023/01/04 00:53:37;;;;;;;;;;;;;;;;;;4986548;28;5052;-58
2023/01/04 00:56:02;;;;;;;;;;;;;;;;;;4988829;28;5056;-58
2023/01/04 00:58:27;;;;;;;;;;;;;;;;;;4987531;28;3722;-60
2023/01/04 01:00:53;;;;;;;;;;;;;;;;;;4989360;28;5615;-58
2023/01/04 01:03:18;;;;;;;;;;;;;;;;;;4998368;28;5180;-58
2023/01/04 01:05:43;;;;;;;;;;;;;;;;;;4999263;28;4718;-58
2023/01/04 01:08:24;;;;;;;;;;;;;;;;;;4988698;28;5120;-58
2023/01/04 01:10:49;;;;;;;;;;;;;;;;;;4990429;28;1159;-59
2023/01/04 01:13:15;;;;;;;;;;;;;;;;;;4984256;28;5094;-58
2023/01/04 01:15:40;;;;;;;;;;;;;;;;;;4986327;28;4705;-59
2023/01/04 01:18:05;;;;;;;;;;;;;;;;;;4986630;28;5151;-58
2023/01/04 01:20:30;;;;;;;;;;;;;;;;;;4985666;28;5574;-58
2023/01/04 01:22:56;;;;;;;;;;;;;;;;;;5002557;28;3269;-58
2023/01/04 01:25:21;;;;;;;;;;;;;;;;;;4986669;28;4987;-58
2023/01/04 01:27:46;;;;;;;;;;;;;;;;;;4981867;28;5101;-58
2023/01/04 01:30:11;;;;;;;;;;;;;;;;;;4988042;28;4642;-59
2023/01/04 01:32:37;;;;;;;;;;;;;;;;;;4984779;28;4556;-58
2023/01/04 01:35:02;;;;;;;;;;;;;;;;;;4985352;28;4530;-60
2023/01/04 01:37:27;;;;;;;;;;;;;;;;;;4984297;28;3445;-58
2023/01/04 01:39:53;;;;;;;;;;;;;;;;;;4985440;28;4856;-59
2023/01/04 01:42:19;;;;;;;;;;;;;;;;;;4982707;28;5118;-58
2023/01/04 01:44:44;;;;;;;;;;;;;;;;;;4986652;28;5113;-58
2023/01/04 01:47:16;;;;;;;;;;;;;;;;;;4984968;28;5028;-58
2023/01/04 01:49:41;;;;;;;;;;;;;;;;;;4983545;28;3452;-58
2023/01/04 01:52:08;;;;;;;;;;;;;;;;;;4985135;28;4996;-58
2023/01/04 01:54:34;;;;;;;;;;;;;;;;;;4982352;28;4997;-59
2023/01/04 01:57:00;;;;;;;;;;;;;;;;;;4987291;28;4720;-59
2023/01/04 01:59:25;;;;;;;;;;;;;;;;;;4988008;28;5258;-60
2023/01/04 02:01:50;;;;;;;;;;;;;;;;;;4988085;28;3362;-59
2023/01/04 02:04:16;;;;;;;;;;;;;;;;;;4985975;28;5503;-58
2023/01/04 02:06:42;;;;;;;;;;;;;;;;;;4983934;28;5071;-59
2023/01/04 02:09:07;;;;;;;;;;;;;;;;;;4979227;28;4966;-59
2023/01/04 02:11:33;;;;;;;;;;;;;;;;;;4988785;28;4635;-58
2023/01/04 02:16:45;;;;;;;;;;;;;;;;;;5002472;28;6053;-59
2023/01/04 02:19:10;;;;;;;;;;;;;;;;;;4981591;28;5036;-59
2023/01/04 02:21:47;;;;;;;;;;;;;;;;;;4987419;28;4787;-59
2023/01/04 02:24:19;;;;;;;;;;;;;;;;;;4999259;28;5145;-59
2023/01/04 02:26:56;;;;;;;;;;;;;;;;;;4988435;28;5026;-59
2023/01/04 02:29:40;;;;;;;;;;;;;;;;;;4986821;28;5156;-59
2023/01/04 02:32:32;;;;;;;;;;;;;;;;;;4986636;28;5046;-59
2023/01/04 02:34:57;;;;;;;;;;;;;;;;;;4963698;28;3493;-59
2023/01/04 02:37:42;;;;;;;;;;;;;;;;;;5001824;28;5039;-59
2023/01/04 02:40:22;;;;;;;;;;;;;;;;;;4976246;28;4449;-58
2023/01/04 02:45:39;;;;;;;;;;;;;;;;;;5003796;28;5150;-59
2023/01/04 02:50:55;;;;;;;;;;;;;;;;;;4995228;28;5096;-58
2023/01/04 02:53:24;;;;;;;;;;;;;;;;;;5002550;28;5005;-58
2023/01/04 02:55:55;;;;;;;;;;;;;;;;;;4996196;28;3346;-59
2023/01/04 02:58:39;;;;;;;;;;;;;;;;;;4999370;28;5033;-59
2023/01/04 03:07:01;;;;;;;;;;;;;;;;;;5003140;28;5437;-58
2023/01/04 03:09:28;;;;;;;;;;;;;;;;;;5000720;28;5133;-60
2023/01/04 03:14:49;;;;;;;;;;;;;;;;;;5000390;28;5031;-58
2023/01/04 03:17:15;;;;;;;;;;;;;;;;;;4997010;28;5159;-60
2023/01/04 03:19:55;;;;;;;;;;;;;;;;;;4999836;28;4269;-58
2023/01/04 03:36:11;;;;;;;;;;;;;;;;;;4999863;28;4500;-59
2023/01/04 03:49:59;;;;;;;;;;;;;;;;;;4994926;28;3547;-59
2023/01/04 03:52:25;;;;;;;;;;;;;;;;;;4998391;28;4985;-59
2023/01/04 03:54:51;;;;;;;;;;;;;;;;;;5010917;28;4622;-58
2023/01/04 03:57:16;;;;;;;;;;;;;;;;;;4997396;28;5124;-58
2023/01/04 03:59:43;;;;;;;;;;;;;;;;;;5000970;28;5136;-59
2023/01/04 04:02:12;;;;;;;;;;;;;;;;;;4998510;28;5213;-59
2023/01/04 04:10:06;;;;;;;;;;;;;;;;;;5000137;28;4746;-59
2023/01/04 04:12:31;;;;;;;;;;;;;;;;;;4999104;28;5052;-58
2023/01/04 04:14:56;;;;;;;;;;;;;;;;;;4995495;28;5171;-58
2023/01/04 04:17:21;;;;;;;;;;;;;;;;;;4997475;28;5207;-58
2023/01/04 04:19:47;;;;;;;;;;;;;;;;;;5000903;28;4189;-58
2023/01/04 04:22:12;;;;;;;;;;;;;;;;;;4997178;28;4821;-59
2023/01/04 04:24:37;;;;;;;;;;;;;;;;;;4995444;28;5052;-59
2023/01/04 04:27:02;;;;;;;;;;;;;;;;;;5000363;28;5121;-58
2023/01/04 04:29:28;;;;;;;;;;;;;;;;;;4999420;28;5127;-58
2023/01/04 04:31:53;;;;;;;;;;;;;;;;;;5001793;28;3560;-59
2023/01/04 04:34:18;;;;;;;;;;;;;;;;;;4996749;28;5142;-59
2023/01/04 04:36:43;;;;;;;;;;;;;;;;;;4992954;28;4498;-59
2023/01/04 04:39:09;;;;;;;;;;;;;;;;;;5002219;28;5062;-58
2023/01/04 04:41:37;;;;;;;;;;;;;;;;;;4994366;28;4529;-57
2023/01/04 04:44:03;;;;;;;;;;;;;;;;;;4995539;28;5172;-60
2023/01/04 04:46:28;;;;;;;;;;;;;;;;;;5002516;28;3384;-59
2023/01/04 04:48:53;;;;;;;;;;;;;;;;;;4998106;28;5035;-59
2023/01/04 04:51:19;;;;;;;;;;;;;;;;;;4998851;28;4499;-59
2023/01/04 04:53:44;;;;;;;;;;;;;;;;;;4994735;28;4892;-59
2023/01/04 04:56:09;;;;;;;;;;;;;;;;;;4999715;28;4880;-59
2023/01/04 04:58:35;;;;;;;;;;;;;;;;;;4997020;28;3520;-59
2023/01/04 05:01:00;;;;;;;;;;;;;;;;;;4997412;28;4506;-59
2023/01/04 05:03:25;;;;;;;;;;;;;;;;;;5000484;28;4920;-60
2023/01/04 05:05:50;;;;;;;;;;;;;;;;;;5002773;28;5045;-59
2023/01/04 05:08:16;;;;;;;;;;;;;;;;;;4996635;28;5017;-61
2023/01/04 05:10:41;;;;;;;;;;;;;;;;;;4981736;28;3421;-59
2023/01/04 05:13:09;;;;;;;;;;;;;;;;;;4979881;28;4581;-59
2023/01/04 05:15:39;;;;;;;;;;;;;;;;;;4980788;28;4995;-59
2023/01/04 05:18:05;;;;;;;;;;;;;;;;;;4982023;28;5173;-59
2023/01/04 05:20:30;;;;;;;;;;;;;;;;;;4988271;28;4786;-59
2023/01/04 05:22:55;;;;;;;;;;;;;;;;;;4991663;28;1898;-59
2023/01/04 05:25:21;;;;;;;;;;;;;;;;;;4982366;28;5097;-58
2023/01/04 05:27:46;;;;;;;;;;;;;;;;;;4972245;28;5141;-59
2023/01/04 05:32:55;;;;;;;;;;;;;;;;;;4986438;28;4509;-60
2023/01/04 05:35:20;;;;;;;;;;;;;;;;;;4985102;28;5090;-59
2023/01/04 05:37:46;;;;;;;;;;;;;;;;;;4985716;28;3600;-59
2023/01/04 05:40:11;;;;;;;;;;;;;;;;;;5006497;28;5004;-59
2023/01/04 05:42:36;;;;;;;;;;;;;;;;;;4989105;28;5013;-59
2023/01/04 05:45:01;;;;;;;;;;;;;;;;;;4983895;28;4462;-59
2023/01/04 05:47:27;;;;;;;;;;;;;;;;;;4981556;28;4485;-58
2023/01/04 05:49:52;;;;;;;;;;;;;;;;;;4983900;28;3247;-60
2023/01/04 05:52:17;;;;;;;;;;;;;;;;;;4998798;28;5136;-59
2023/01/04 05:54:42;;;;;;;;;;;;;;;;;;4989048;28;4947;-59
2023/01/04 05:57:08;;;;;;;;;;;;;;;;;;4979775;28;5186;-58
2023/01/04 05:59:33;;;;;;;;;;;;;;;;;;4982632;28;4906;-59
2023/01/04 06:01:58;;;;;;;;;;;;;;;;;;4986622;28;3590;-59
2023/01/04 06:04:24;;;;;;;;;;;;;;;;;;4984645;28;5007;-59
2023/01/04 06:06:49;;;;;;;;;;;;;;;;;;4994975;28;5255;-59
2023/01/04 06:09:14;;;;;;;;;;;;;;;;;;4987447;28;4963;-58
2023/01/04 06:11:39;;;;;;;;;;;;;;;;;;4985732;28;5264;-59
2023/01/04 06:14:05;;;;;;;;;;;;;;;;;;4982783;28;5294;-58
2023/01/04 06:16:30;;;;;;;;;;;;;;;;;;4985513;28;3397;-60
2023/01/04 06:18:55;;;;;;;;;;;;;;;;;;4997489;28;5129;-59
2023/01/04 06:21:20;;;;;;;;;;;;;;;;;;4990666;28;5046;-59
2023/01/04 06:23:46;;;;;;;;;;;;;;;;;;4983564;28;4995;-59
2023/01/04 06:26:11;;;;;;;;;;;;;;;;;;4988475;28;4490;-59
2023/01/04 06:28:36;;;;;;;;;;;;;;;;;;4990231;28;1183;-59
2023/01/04 06:31:02;;;;;;;;;;;;;;;;;;4981097;28;4830;-60
2023/01/04 06:33:28;;;;;;;;;;;;;;;;;;4978231;28;5712;-58
2023/01/04 06:35:53;;;;;;;;;;;;;;;;;;4973341;28;5242;-60
2023/01/04 06:38:19;;;;;;;;;;;;;;;;;;4974595;28;5257;-59
2023/01/04 06:40:44;;;;;;;;;;;;;;;;;;5003075;28;3589;-61
2023/01/04 06:43:09;;;;;;;;;;;;;;;;;;4995072;28;5011;-58
2023/01/04 06:45:34;;;;;;;;;;;;;;;;;;4980268;28;4637;-60
2023/01/04 06:48:00;;;;;;;;;;;;;;;;;;4989857;28;5107;-60
2023/01/04 06:50:25;;;;;;;;;;;;;;;;;;5004167;28;5084;-59
2023/01/04 06:52:50;;;;;;;;;;;;;;;;;;5005639;28;1174;-59
2023/01/04 06:55:15;;;;;;;;;;;;;;;;;;5007522;28;5061;-59
2023/01/04 06:57:41;;;;;;;;;;;;;;;;;;4997391;28;4563;-59
2023/01/04 07:00:07;;;;;;;;;;;;;;;;;;4995930;28;4497;-59
2023/01/04 07:02:33;;;;;;;;;;;;;;;;;;5000397;28;5266;-59
2023/01/04 07:04:58;;;;;;;;;;;;;;;;;;5009239;28;1517;-59
2023/01/04 07:07:23;;;;;;;;;;;;;;;;;;5004646;28;4699;-59
2023/01/04 07:09:48;;;;;;;;;;;;;;;;;;5001872;28;5094;-59
2023/01/04 07:12:14;;;;;;;;;;;;;;;;;;4996027;28;5087;-59
2023/01/04 07:14:39;;;;;;;;;;;;;;;;;;4996917;28;5693;-59
2023/01/04 07:17:04;;;;;;;;;;;;;;;;;;5003296;28;5120;-58
2023/01/04 07:19:29;;;;;;;;;;;;;;;;;;5006357;28;4435;-64
2023/01/04 07:21:55;;;;;;;;;;;;;;;;;;5006491;28;5115;-65
2023/01/04 07:24:20;;;;;;;;;;;;;;;;;;5006791;28;4924;-65
2023/01/04 07:26:45;;;;;;;;;;;;;;;;;;5006408;28;5128;-64
2023/01/04 07:29:15;;;;;;;;;;;;;;;;;;5006997;28;5067;-65
2023/01/04 07:31:41;;;;;;;;;;;;;;;;;;5007004;28;1325;-65
2023/01/04 07:34:06;;;;;;;;;;;;;;;;;;4995280;28;5102;-70
2023/01/04 07:36:32;;;;;;;;;;;;;;;;;;5005228;28;4525;-65
2023/01/04 07:39:00;;;;;;;;;;;;;;;;;;5008591;28;4513;-64
2023/01/04 07:41:25;;;;;;;;;;;;;;;;;;5006849;28;5256;-67
2023/01/04 07:43:51;;;;;;;;;;;;;;;;;;5007246;28;3499;-60
2023/01/04 07:46:16;;;;;;;;;;;;;;;;;;5000641;28;5090;-60
2023/01/04 07:48:41;;;;;;;;;;;;;;;;;;5002799;28;5058;-61
2023/01/04 07:51:06;;;;;;;;;;;;;;;;;;4988897;28;5101;-61
2023/01/04 07:53:32;;;;;;;;;;;;;;;;;;4982452;28;5036;-60
2023/01/04 07:55:57;;;;;;;;;;;;;;;;;;4987902;28;1208;-61
2023/01/04 07:58:22;;;;;;;;;;;;;;;;;;5006273;28;4928;-59
2023/01/04 08:00:48;;;;;;;;;;;;;;;;;;5003347;28;4880;-61
2023/01/04 08:03:13;;;;;;;;;;;;;;;;;;5007362;28;5399;-59
2023/01/04 08:05:39;;;;;;;;;;;;;;;;;;5007563;28;5213;-60
2023/01/04 08:08:04;;;;;;;;;;;;;;;;;;5001554;28;5003;-61
2023/01/04 08:10:29;;;;;;;;;;;;;;;;;;5006324;28;3478;-61
2023/01/04 08:12:57;;;;;;;;;;;;;;;;;;5000985;28;4620;-62
2023/01/04 08:15:22;;;;;;;;;;;;;;;;;;5002657;28;5129;-61
2023/01/04 08:17:47;;;;;;;;;;;;;;;;;;4996364;28;4855;-61
2023/01/04 08:20:12;;;;;;;;;;;;;;;;;;5002435;28;5100;-60
2023/01/04 08:22:38;;;;;;;;;;;;;;;;;;5002249;28;3348;-61
2023/01/04 08:25:04;;;;;;;;;;;;;;;;;;5004212;28;5025;-61
2023/01/04 08:27:30;;;;;;;;;;;;;;;;;;5005414;28;4909;-60
2023/01/04 08:29:55;;;;;;;;;;;;;;;;;;5005400;28;5287;-63
2023/01/04 08:32:20;;;;;;;;;;;;;;;;;;4999137;28;4707;-60
2023/01/04 08:34:46;;;;;;;;;;;;;;;;;;4998912;28;1351;-61
2023/01/04 08:37:11;;;;;;;;;;;;;;;;;;5006175;28;5052;-62
2023/01/04 08:39:36;;;;;;;;;;;;;;;;;;5007590;28;5100;-62
2023/01/04 08:42:02;;;;;;;;;;;;;;;;;;5009170;28;5083;-64
2023/01/04 08:44:27;;;;;;;;;;;;;;;;;;5007491;28;5034;-60
2023/01/04 08:46:52;;;;;;;;;;;;;;;;;;5008745;28;3289;-61
2023/01/04 08:49:18;;;;;;;;;;;;;;;;;;5009302;28;5065;-60
2023/01/04 08:51:43;;;;;;;;;;;;;;;;;;4999456;28;4462;-60
2023/01/04 08:54:08;;;;;;;;;;;;;;;;;;5006193;28;5040;-61
2023/01/04 08:56:33;;;;;;;;;;;;;;;;;;5004806;28;5056;-58
2023/01/04 08:58:59;;;;;;;;;;;;;;;;;;5009671;28;3284;-59
2023/01/04 09:01:24;;;;;;;;;;;;;;;;;;5007826;28;5041;-59
2023/01/04 09:03:49;;;;;;;;;;;;;;;;;;5008126;28;4759;-60
2023/01/04 09:06:15;;;;;;;;;;;;;;;;;;5011020;28;4525;-60
2023/01/04 09:08:40;;;;;;;;;;;;;;;;;;5007899;28;5085;-59
2023/01/04 09:11:10;;;;;;;;;;;;;;;;;;4997619;28;5028;-60
2023/01/04 09:13:35;;;;;;;;;;;;;;;;;;5004603;28;3302;-61
2023/01/04 09:16:01;;;;;;;;;;;;;;;;;;5008437;28;5132;-61
2023/01/04 09:18:26;;;;;;;;;;;;;;;;;;5003392;28;4664;-62
2023/01/04 09:20:51;;;;;;;;;;;;;;;;;;4999523;28;5247;-60
2023/01/04 09:23:16;;;;;;;;;;;;;;;;;;5003501;28;5079;-59
2023/01/04 09:25:42;;;;;;;;;;;;;;;;;;4994515;28;3319;-60
2023/01/04 09:28:07;;;;;;;;;;;;;;;;;;5004224;28;4860;-60
2023/01/04 09:30:32;;;;;;;;;;;;;;;;;;5002547;28;5028;-60
2023/01/04 09:32:57;;;;;;;;;;;;;;;;;;5009892;28;5118;-59
2023/01/04 09:35:23;;;;;;;;;;;;;;;;;;5005970;28;4739;-58
2023/01/04 09:37:48;;;;;;;;;;;;;;;;;;5003017;28;1040;-58
2023/01/04 09:40:18;;;;;;;;;;;;;;;;;;5002966;28;4974;-60
2023/01/04 09:42:43;;;;;;;;;;;;;;;;;;5000080;28;5101;-58
2023/01/04 09:45:15;;;;;;;;;;;;;;;;;;5004821;28;4527;-59
2023/01/04 09:47:49;;;;;;;;;;;;;;;;;;5001122;28;4499;-60
2023/01/04 09:50:19;;;;;;;;;;;;;;;;;;5005246;28;4930;-63
2023/01/04 09:53:11;;;;;;;;;;;;;;;;;;5005276;28;3483;-59
2023/01/04 09:55:41;;;;;;;;;;;;;;;;;;4986319;28;4720;-59
2023/01/04 09:58:16;;;;;;;;;;;;;;;;;;4989863;28;5083;-64
2023/01/04 10:00:46;;;;;;;;;;;;;;;;;;4998791;28;5364;-59
2023/01/04 10:03:17;;;;;;;;;;;;;;;;;;4997152;28;5420;-59
2023/01/04 10:05:42;;;;;;;;;;;;;;;;;;5003106;28;5066;-60
2023/01/04 10:08:17;;;;;;;;;;;;;;;;;;5007056;28;5148;-60
2023/01/04 10:11:05;;;;;;;;;;;;;;;;;;5007936;28;1096;-60
2023/01/04 10:13:43;;;;;;;;;;;;;;;;;;4997093;28;4368;-60
2023/01/04 10:16:18;;;;;;;;;;;;;;;;;;5006122;28;5035;-60
2023/01/04 10:18:43;;;;;;;;;;;;;;;;;;4999920;28;5057;-60
2023/01/04 10:21:17;;;;;;;;;;;;;;;;;;4995123;28;5130;-60
2023/01/04 10:23:42;;;;;;;;;;;;;;;;;;4995862;28;4545;-62
2023/01/04 10:26:08;;;;;;;;;;;;;;;;;;5004721;28;5091;-59
2023/01/04 10:28:45;;;;;;;;;;;;;;;;;;5002877;28;3509;-60
2023/01/04 10:31:18;;;;;;;;;;;;;;;;;;5003068;28;5150;-60
2023/01/04 10:33:47;;;;;;;;;;;;;;;;;;5001100;28;5138;-60
2023/01/04 10:36:14;;;;;;;;;;;;;;;;;;5000124;28;4640;-61
2023/01/04 10:38:39;;;;;;;;;;;;;;;;;;5000680;28;5119;-61
2023/01/04 10:41:07;;;;;;;;;;;;;;;;;;5006500;28;4502;-62
2023/01/04 10:43:38;;;;;;;;;;;;;;;;;;5007290;28;1886;-62
2023/01/04 10:46:03;;;;;;;;;;;;;;;;;;5007394;28;5546;-61
2023/01/04 10:48:39;;;;;;;;;;;;;;;;;;5003811;28;5037;-60
2023/01/04 10:51:05;;;;;;;;;;;;;;;;;;5004874;28;5052;-59
2023/01/04 10:53:43;;;;;;;;;;;;;;;;;;5007855;28;4500;-60
2023/01/04 10:56:08;;;;;;;;;;;;;;;;;;5002035;28;4538;-60
2023/01/04 10:58:36;;;;;;;;;;;;;;;;;;5003693;28;1184;-61
2023/01/04 11:01:10;;;;;;;;;;;;;;;;;;4997896;28;4535;-59
2023/01/04 11:03:42;;;;;;;;;;;;;;;;;;4995915;28;5793;-59
2023/01/04 11:06:10;;;;;;;;;;;;;;;;;;5008161;28;5064;-60
2023/01/04 11:08:37;;;;;;;;;;;;;;;;;;4999444;28;5026;-60
2023/01/04 11:11:03;;;;;;;;;;;;;;;;;;4999798;28;5058;-60
2023/01/04 11:13:28;;;;;;;;;;;;;;;;;;5004418;28;1258;-60
2023/01/04 11:15:53;;;;;;;;;;;;;;;;;;4998867;28;5023;-60
2023/01/04 11:18:19;;;;;;;;;;;;;;;;;;4999304;28;4876;-60
2023/01/04 11:20:44;;;;;;;;;;;;;;;;;;5005522;28;5040;-60
2023/01/04 11:23:13;;;;;;;;;;;;;;;;;;5006064;28;5093;-60
2023/01/04 11:26:05;;;;;;;;;;;;;;;;;;4999268;28;1056;-60
2023/01/04 11:28:41;;;;;;;;;;;;;;;;;;4999588;28;5212;-60
2023/01/04 11:31:18;;;;;;;;;;;;;;;;;;5004676;28;5320;-61
2023/01/04 11:34:04;;;;;;;;;;;;;;;;;;4999365;28;5641;-61
2023/01/04 11:36:39;;;;;;;;;;;;;;;;;;5001893;28;4987;-61
2023/01/04 11:39:05;;;;;;;;;;;;;;;;;;5004803;28;4722;-61
2023/01/04 11:41:30;;;;;;;;;;;;;;;;;;5007480;28;5041;-60
2023/01/04 11:43:57;;;;;;;;;;;;;;;;;;5007265;28;3295;-61
2023/01/04 11:46:25;;;;;;;;;;;;;;;;;;5001986;28;5131;-62
2023/01/04 11:48:50;;;;;;;;;;;;;;;;;;5008354;28;4971;-62
2023/01/04 11:51:17;;;;;;;;;;;;;;;;;;4994533;28;4948;-61
2023/01/04 11:53:42;;;;;;;;;;;;;;;;;;4992756;28;4998;-62
2023/01/04 11:56:12;;;;;;;;;;;;;;;;;;5005319;28;5100;-61
2023/01/04 11:58:37;;;;;;;;;;;;;;;;;;5008219;28;3117;-61
2023/01/04 12:01:02;;;;;;;;;;;;;;;;;;5006476;28;5111;-61
2023/01/04 12:03:28;;;;;;;;;;;;;;;;;;5007937;28;4685;-61
2023/01/04 12:05:53;;;;;;;;;;;;;;;;;;5006907;28;4965;-60
2023/01/04 12:08:24;;;;;;;;;;;;;;;;;;5007479;28;5371;-61
2023/01/04 12:10:50;;;;;;;;;;;;;;;;;;5000532;28;3326;-62
2023/01/04 12:13:15;;;;;;;;;;;;;;;;;;4988970;28;5165;-62
2023/01/04 12:15:59;;;;;;;;;;;;;;;;;;5008037;28;5212;-68
2023/01/04 12:18:25;;;;;;;;;;;;;;;;;;5002927;28;5079;-68
2023/01/04 12:20:50;;;;;;;;;;;;;;;;;;5007801;28;5425;-68
2023/01/04 12:23:15;;;;;;;;;;;;;;;;;;5002468;28;5087;-68
2023/01/04 12:25:44;;;;;;;;;;;;;;;;;;5009029;28;3294;-63
2023/01/04 12:28:28;;;;;;;;;;;;;;;;;;5007481;28;4959;-60
2023/01/04 12:30:53;;;;;;;;;;;;;;;;;;5001782;28;5173;-60
2023/01/04 12:33:37;;;;;;;;;;;;;;;;;;5009451;28;4969;-60
2023/01/04 12:36:12;;;;;;;;;;;;;;;;;;5009716;28;4545;-62
2023/01/04 12:38:46;;;;;;;;;;;;;;;;;;5024593;28;4643;-61
2023/01/04 12:41:12;;;;;;;;;;;;;;;;;;5007978;28;5089;-61
2023/01/04 12:43:37;;;;;;;;;;;;;;;;;;4990062;28;3310;-60
2023/01/04 12:49:24;;;;;;;;;;;;;;;;;;5008699;28;5109;-60
2023/01/04 12:51:49;;;;;;;;;;;;;;;;;;4995287;28;5118;-59
2023/01/04 12:54:30;;;;;;;;;;;;;;;;;;4989756;28;4666;-60
2023/01/04 12:57:14;;;;;;;;;;;;;;;;;;4988657;28;5014;-59
2023/01/04 12:59:52;;;;;;;;;;;;;;;;;;4984310;28;5111;-57
2023/01/04 13:02:18;;;;;;;;;;;;;;;;;;4983699;28;5224;-59
2023/01/04 13:04:43;;;;;;;;;;;;;;;;;;4991872;28;1145;-59
2023/01/04 13:07:12;;;;;;;;;;;;;;;;;;4988301;28;5056;-61
2023/01/04 13:09:40;;;;;;;;;;;;;;;;;;4995336;28;4533;-60
2023/01/04 13:12:11;;;;;;;;;;;;;;;;;;4984887;28;4593;-61
2023/01/04 13:14:38;;;;;;;;;;;;;;;;;;4984438;28;5282;-61
2023/01/04 13:17:16;;;;;;;;;;;;;;;;;;5004352;28;4973;-60
2023/01/04 13:19:42;;;;;;;;;;;;;;;;;;4989157;28;4431;-60
2023/01/04 13:22:09;;;;;;;;;;;;;;;;;;4991357;28;4983;-60
2023/01/04 13:24:34;;;;;;;;;;;;;;;;;;4983872;28;4817;-61
2023/01/04 13:27:20;;;;;;;;;;;;;;;;;;4986339;28;4937;-60
2023/01/04 13:29:45;;;;;;;;;;;;;;;;;;4989788;28;4642;-60
2023/01/04 13:32:29;;;;;;;;;;;;;;;;;;4991031;28;4661;-62
2023/01/04 13:35:12;;;;;;;;;;;;;;;;;;5015906;28;3283;-62
2023/01/04 13:37:39;;;;;;;;;;;;;;;;;;5016966;28;4952;-59
2023/01/04 13:40:17;;;;;;;;;;;;;;;;;;5012960;28;4519;-59
2023/01/04 13:42:43;;;;;;;;;;;;;;;;;;4981334;28;4898;-61
2023/01/04 13:45:24;;;;;;;;;;;;;;;;;;4985653;28;4912;-60
2023/01/04 13:47:49;;;;;;;;;;;;;;;;;;4983920;28;4627;-60
2023/01/04 13:50:28;;;;;;;;;;;;;;;;;;4984699;28;4473;-60
2023/01/04 13:52:54;;;;;;;;;;;;;;;;;;4989350;28;3374;-60
2023/01/04 13:55:21;;;;;;;;;;;;;;;;;;4986369;28;5496;-60
2023/01/04 13:57:56;;;;;;;;;;;;;;;;;;4998271;28;5045;-59
2023/01/04 14:00:21;;;;;;;;;;;;;;;;;;5004763;28;5355;-59
2023/01/04 14:02:47;;;;;;;;;;;;;;;;;;5005732;28;5137;-59
2023/01/04 14:05:14;;;;;;;;;;;;;;;;;;5006786;28;4917;-60
2023/01/04 14:07:40;;;;;;;;;;;;;;;;;;5009312;28;2074;-60
2023/01/04 14:10:12;;;;;;;;;;;;;;;;;;5008503;28;4365;-61
2023/01/04 14:12:37;;;;;;;;;;;;;;;;;;5017376;28;4729;-61
2023/01/04 14:15:05;;;;;;;;;;;;;;;;;;5001139;28;4508;-60
2023/01/04 14:17:32;;;;;;;;;;;;;;;;;;5007862;28;5055;-61
2023/01/04 14:20:00;;;;;;;;;;;;;;;;;;5008420;28;4525;-61
2023/01/04 14:22:36;;;;;;;;;;;;;;;;;;5014027;28;4794;-59
2023/01/04 14:25:20;;;;;;;;;;;;;;;;;;4992263;28;4975;-59
2023/01/04 14:27:45;;;;;;;;;;;;;;;;;;4988031;28;4739;-69
2023/01/04 14:30:16;;;;;;;;;;;;;;;;;;4991067;28;5094;-63
2023/01/04 14:32:58;;;;;;;;;;;;;;;;;;5000785;28;5113;-63
2023/01/04 14:35:23;;;;;;;;;;;;;;;;;;5006900;28;5064;-61
2023/01/04 14:37:48;;;;;;;;;;;;;;;;;;5003059;28;2985;-62
2023/01/04 14:40:15;;;;;;;;;;;;;;;;;;4999911;28;5089;-63
2023/01/04 14:42:40;;;;;;;;;;;;;;;;;;5002445;28;5098;-63
2023/01/04 14:45:12;;;;;;;;;;;;;;;;;;5004969;28;5101;-65
2023/01/04 14:47:37;;;;;;;;;;;;;;;;;;5002221;28;5107;-61
2023/01/04 14:50:03;;;;;;;;;;;;;;;;;;5002687;28;4569;-57
2023/01/04 14:52:28;;;;;;;;;;;;;;;;;;4984981;28;3441;-58
2023/01/04 14:54:54;;;;;;;;;;;;;;;;;;4987673;28;5442;-56
2023/01/04 14:57:20;;;;;;;;;;;;;;;;;;4988520;28;4887;-57
2023/01/04 14:59:46;;;;;;;;;;;;;;;;;;4980057;28;4872;-56
2023/01/04 15:02:11;;;;;;;;;;;;;;;;;;4987047;28;5081;-58
2023/01/04 15:04:36;;;;;;;;;;;;;;;;;;4983034;28;2212;-57
2023/01/04 15:07:02;;;;;;;;;;;;;;;;;;4985700;28;5146;-58
2023/01/04 15:09:27;;;;;;;;;;;;;;;;;;4983615;28;4658;-58
2023/01/04 15:11:52;;;;;;;;;;;;;;;;;;4982518;28;5012;-59
2023/01/04 15:14:18;;;;;;;;;;;;;;;;;;4987224;28;5109;-59
2023/01/04 15:16:43;;;;;;;;;;;;;;;;;;4988856;28;1169;-59
2023/01/04 15:19:08;;;;;;;;;;;;;;;;;;4976737;28;5069;-59
2023/01/04 15:21:33;;;;;;;;;;;;;;;;;;4975641;28;4886;-59
2023/01/04 15:23:59;;;;;;;;;;;;;;;;;;4984129;28;5104;-59
2023/01/04 15:26:24;;;;;;;;;;;;;;;;;;4985706;28;5082;-56
2023/01/04 15:28:49;;;;;;;;;;;;;;;;;;4997360;28;3526;-57
2023/01/04 15:31:15;;;;;;;;;;;;;;;;;;5006343;28;5060;-58
2023/01/04 15:33:40;;;;;;;;;;;;;;;;;;5003681;28;5037;-58
2023/01/04 15:36:15;;;;;;;;;;;;;;;;;;5002382;28;5090;-59
2023/01/04 15:38:40;;;;;;;;;;;;;;;;;;5000235;28;5187;-58
2023/01/04 15:44:01;;;;;;;;;;;;;;;;;;4984791;28;5331;-55
2023/01/04 15:46:27;;;;;;;;;;;;;;;;;;5004025;28;3524;-59
2023/01/04 15:48:52;;;;;;;;;;;;;;;;;;5002605;28;4506;-61
2023/01/04 15:51:17;;;;;;;;;;;;;;;;;;5002032;28;4949;-62
2023/01/04 15:53:42;;;;;;;;;;;;;;;;;;5000628;28;5182;-61
2023/01/04 15:56:09;;;;;;;;;;;;;;;;;;5002130;28;4949;-60
2023/01/04 15:58:34;;;;;;;;;;;;;;;;;;4998864;28;3714;-57
2023/01/04 16:01:05;;;;;;;;;;;;;;;;;;5005553;28;4555;-61
2023/01/04 16:03:32;;;;;;;;;;;;;;;;;;4994874;28;4560;-62
2023/01/04 16:06:02;;;;;;;;;;;;;;;;;;4996641;28;5033;-61
2023/01/04 16:08:27;;;;;;;;;;;;;;;;;;4995963;28;4975;-61
2023/01/04 16:10:53;;;;;;;;;;;;;;;;;;4998613;28;3603;-60
2023/01/04 16:13:18;;;;;;;;;;;;;;;;;;5000065;28;4911;-63
2023/01/04 16:15:43;;;;;;;;;;;;;;;;;;5000540;28;5051;-62
2023/01/04 16:18:09;;;;;;;;;;;;;;;;;;4995384;28;4594;-62
2023/01/04 16:20:34;;;;;;;;;;;;;;;;;;5001601;28;4725;-62
2023/01/04 16:22:59;;;;;;;;;;;;;;;;;;4997106;28;3460;-59
2023/01/04 16:25:25;;;;;;;;;;;;;;;;;;4997602;28;5091;-66
2023/01/04 16:27:50;;;;;;;;;;;;;;;;;;4997158;28;4918;-61
2023/01/04 16:30:15;;;;;;;;;;;;;;;;;;4997261;28;5067;-62
2023/01/04 16:32:41;;;;;;;;;;;;;;;;;;4996038;28;5392;-65
2023/01/04 16:35:07;;;;;;;;;;;;;;;;;;5004658;28;5175;-66
2023/01/04 16:37:32;;;;;;;;;;;;;;;;;;5004538;28;3456;-62
2023/01/04 16:39:57;;;;;;;;;;;;;;;;;;4995767;28;5160;-65
2023/01/04 16:42:23;;;;;;;;;;;;;;;;;;4992521;28;4637;-60
2023/01/04 16:44:48;;;;;;;;;;;;;;;;;;4994546;28;5189;-60
2023/01/04 16:47:14;;;;;;;;;;;;;;;;;;4992622;28;4834;-63
2023/01/04 16:49:39;;;;;;;;;;;;;;;;;;4997745;28;3457;-67
2023/01/04 16:52:09;;;;;;;;;;;;;;;;;;5000868;28;4604;-59
2023/01/04 16:54:34;;;;;;;;;;;;;;;;;;4989587;28;4931;-60
2023/01/04 16:56:59;;;;;;;;;;;;;;;;;;4999490;28;5156;-61
2023/01/04 16:59:25;;;;;;;;;;;;;;;;;;4998349;28;5243;-61
2023/01/04 17:01:51;;;;;;;;;;;;;;;;;;4997585;28;3569;-62
2023/01/04 17:04:16;;;;;;;;;;;;;;;;;;4997073;28;4665;-61
2023/01/04 17:06:42;;;;;;;;;;;;;;;;;;4994445;28;4878;-60
2023/01/04 17:09:15;;;;;;;;;;;;;;;;;;5002719;28;5310;-60
2023/01/04 17:11:40;;;;;;;;;;;;;;;;;;5000385;28;5130;-60
2023/01/04 17:14:06;;;;;;;;;;;;;;;;;;4998379;28;4705;-60
2023/01/04 17:16:31;;;;;;;;;;;;;;;;;;4996346;28;3643;-61
2023/01/04 17:18:57;;;;;;;;;;;;;;;;;;4996484;28;5021;-60
2023/01/04 17:21:23;;;;;;;;;;;;;;;;;;4997022;28;4817;-61
2023/01/04 17:23:48;;;;;;;;;;;;;;;;;;4996534;28;5180;-62
2023/01/04 17:26:15;;;;;;;;;;;;;;;;;;4995883;28;4546;-59
2023/01/04 17:28:40;;;;;;;;;;;;;;;;;;4996273;28;3804;-59
2023/01/04 17:31:10;;;;;;;;;;;;;;;;;;4999486;28;5126;-59
2023/01/04 17:33:36;;;;;;;;;;;;;;;;;;5003611;28;5074;-60
2023/01/04 17:36:02;;;;;;;;;;;;;;;;;;4997376;28;5250;-61
2023/01/04 17:38:28;;;;;;;;;;;;;;;;;;5003059;28;4989;-61
2023/01/04 17:40:53;;;;;;;;;;;;;;;;;;4995519;28;3595;-60
2023/01/04 17:43:18;;;;;;;;;;;;;;;;;;4995484;28;4673;-62
2023/01/04 17:45:44;;;;;;;;;;;;;;;;;;4995197;28;4585;-60
2023/01/04 17:48:09;;;;;;;;;;;;;;;;;;4997764;28;4987;-62
2023/01/04 17:50:34;;;;;;;;;;;;;;;;;;4999982;28;5518;-62
2023/01/04 17:53:00;;;;;;;;;;;;;;;;;;5004872;28;4724;-56
2023/01/04 17:55:25;;;;;;;;;;;;;;;;;;5004381;28;1101;-63
2023/01/04 17:57:50;;;;;;;;;;;;;;;;;;5002256;28;5063;-63
2023/01/04 18:00:16;;;;;;;;;;;;;;;;;;4995082;28;5038;-62